EDGS

Siegerland Airport

Germany
TAF EDGS 170800Z 1709/1718 10012KT CAVOK TEMPO 1709/1711 11015G25KT BECMG 1711/1713 11015G25KT
Issued Valid From Valid To
Nov-17 @ 08:00 UTC
(58 minutes ago)
Nov-17 @ 09:00 UTC
(in 2 minutes)
Nov-17 @ 18:00 UTC
(in 9 hours)
Nov-17 @ 09:00 to Nov-17 @ 11:00
TAF EDGS 170800Z 1709/1718 10012KT CAVOK
Wind Visibility Clouds Conditions
100° at 12 knots 10,000+ meters
  • No significant clouds
Temporary Nov-17 @ 09:00 to Nov-17 @ 11:00
TEMPO 1709/1711 11015G25KT
Wind
110° at 15 knots
 Gusting to 25 knots
Becoming Nov-17 @ 11:00 to Nov-17 @ 18:00
BECMG 1711/1713 11015G25KT
Wind Visibility Clouds Conditions
110° at 15 knots
 Gusting to 25 knots
10,000+ meters
  • No significant clouds
TAF EDGS 170800Z 1709/1718 10012KT CAVOK TEMPO 1709/1711 11015G25KT BECMG 1711/1713 11015G25KT
Issued Nov-17 @ 08:00 UTC
(58 minutes ago)
Valid From Nov-17 @ 09:00 UTC
(in 2 minutes)
Valid To Nov-17 @ 18:00 UTC
(in 9 hours)
Nov-17 @ 09:00 - Nov-17 @ 11:00
Wind Visibility
100° at 12 knots 10,000+ meters
Clouds
  • No significant clouds
Conditions
Temporary Nov-17 @ 09:00 - Nov-17 @ 11:00
Wind
110° at 15 knots
 Gusting to 25 knots
Becoming Nov-17 @ 11:00 - Nov-17 @ 18:00
Wind Visibility
110° at 15 knots
 Gusting to 25 knots
10,000+ meters
Clouds
  • No significant clouds
Conditions